VTSS/HDY METAR and TAF weather

Enter ICAO airport designator
Station Type Date Time Source
VTSS METAR 2020/01/23 09:00 UTC NOAA

VTSS 230900Z 06015KT 030V090 9999 FEW020 32/23 Q1009 NOSIG


Station Type Date Time Source
VTSS Decoded METAR 2020/01/23 09:00 UTC NOAA

Hat Yai, Thailand (VTSS) 06-55N 100-26E 35M
Jan 23, 2020 - 04:00 AM EST / 2020.01.23 0900 UTC
Wind: from the ENE (060 degrees) at 17 MPH (15 KT) (direction variable):0
Visibility: greater than 7 mile(s):0
Sky conditions: mostly clear
Temperature: 89 F (32 C)
Heat index: 96.8 F (36.0 C):1
Dew Point: 73 F (23 C)
Relative Humidity: 59%
Pressure (altimeter): 29.80 in. Hg (1009 hPa)
ob: VTSS 230900Z 06015KT 030V090 9999 FEW020 32/23 Q1009 NOSIG
cycle: 9

Station Type Date Time Source
VTSS TAF 2020/01/23 06:37 UTC NOAA

TAF VTSS 230500Z 2306/2406 07015KT 9999 SCT020
BECMG 2316/2318 27003KT
BECMG 2401/2403 08010KT

Example: see airport list